createdAt,value
2023-05-03T00:00:19.955Z,14.50
2023-05-03T00:02:49.688Z,14.50
2023-05-03T00:05:18.624Z,14.40
2023-05-03T00:07:48.171Z,14.40
2023-05-03T00:10:16.980Z,14.30
2023-05-03T00:12:46.048Z,14.30
2023-05-03T00:15:14.641Z,15.00
2023-05-03T00:17:43.036Z,14.30
2023-05-03T00:20:13.407Z,14.30
2023-05-03T00:22:41.847Z,14.20
2023-05-03T00:25:11.023Z,14.20
2023-05-03T00:27:39.544Z,14.10
2023-05-03T00:30:10.641Z,14.10
2023-05-03T00:32:39.030Z,14.00
2023-05-03T00:35:09.029Z,13.90
2023-05-03T00:37:38.763Z,13.90
2023-05-03T00:40:10.063Z,13.80
2023-05-03T00:42:38.483Z,13.70
2023-05-03T00:45:08.368Z,13.70
2023-05-03T00:47:38.297Z,13.70
2023-05-03T00:50:11.804Z,13.60
2023-05-03T00:52:42.505Z,13.60
2023-05-03T00:55:11.584Z,13.60
2023-05-03T00:57:40.084Z,13.50
2023-05-03T01:00:10.783Z,13.50
2023-05-03T01:02:39.498Z,13.50
2023-05-03T01:05:09.561Z,13.40
2023-05-03T01:07:49.376Z,13.40
2023-05-03T01:10:25.129Z,13.40
2023-05-03T01:13:01.654Z,13.30
2023-05-03T01:15:47.003Z,13.30
2023-05-03T01:18:19.881Z,13.30
2023-05-03T01:20:51.047Z,13.20
2023-05-03T01:23:34.206Z,13.20
2023-05-03T01:26:17.426Z,13.20
2023-05-03T01:28:45.836Z,13.20
2023-05-03T01:31:36.273Z,14.00
2023-05-03T01:34:16.154Z,13.30
2023-05-03T01:36:45.970Z,13.30
2023-05-03T01:39:20.926Z,13.30
2023-05-03T01:41:52.291Z,13.30
2023-05-03T01:44:22.135Z,13.30
2023-05-03T01:46:50.856Z,13.30
2023-05-03T01:49:19.185Z,13.30
2023-05-03T01:51:47.540Z,13.30
2023-05-03T01:54:16.332Z,13.40
2023-05-03T01:56:44.649Z,13.40
2023-05-03T01:59:14.387Z,13.40
2023-05-03T02:01:43.098Z,13.30
2023-05-03T02:04:11.910Z,13.40
2023-05-03T02:06:40.950Z,13.30
2023-05-03T02:09:09.422Z,13.30
2023-05-03T02:11:37.772Z,13.40
2023-05-03T02:14:06.106Z,13.30
2023-05-03T02:16:35.997Z,13.30
2023-05-03T02:19:04.385Z,13.20
2023-05-03T02:21:34.498Z,13.20
2023-05-03T02:24:03.798Z,13.20
2023-05-03T02:26:32.165Z,13.30
2023-05-03T02:29:00.580Z,13.20
2023-05-03T02:31:32.213Z,13.30
2023-05-03T02:34:02.352Z,13.20
2023-05-03T02:36:31.178Z,13.20
2023-05-03T02:39:02.197Z,14.00
2023-05-03T02:41:30.573Z,13.20
2023-05-03T02:43:59.549Z,13.20
2023-05-03T02:46:29.090Z,13.10
2023-05-03T02:48:57.404Z,13.10
2023-05-03T02:51:28.128Z,13.10
2023-05-03T02:53:56.521Z,13.10
2023-05-03T02:56:26.502Z,14.00
2023-05-03T02:58:55.121Z,13.00
2023-05-03T03:01:24.434Z,13.00
2023-05-03T03:03:53.166Z,13.00
2023-05-03T03:06:21.740Z,13.00
2023-05-03T03:08:51.459Z,13.00
2023-05-03T03:11:20.057Z,12.90
2023-05-03T03:13:49.085Z,12.90
2023-05-03T03:16:17.694Z,12.90
2023-05-03T03:18:46.057Z,12.90
2023-05-03T03:21:15.741Z,13.10
2023-05-03T03:23:44.714Z,12.90
2023-05-03T03:26:14.456Z,12.80
2023-05-03T03:28:42.745Z,12.80
2023-05-03T03:31:13.111Z,12.80
2023-05-03T03:33:43.197Z,12.80
2023-05-03T03:36:17.016Z,13.30
2023-05-03T03:38:47.802Z,12.70
2023-05-03T03:41:18.278Z,12.70
2023-05-03T03:43:47.335Z,12.60
2023-05-03T03:46:19.772Z,12.60
2023-05-03T03:48:51.640Z,12.60
2023-05-03T03:51:20.507Z,12.60
2023-05-03T03:53:49.511Z,12.50
2023-05-03T03:56:19.879Z,12.50
2023-05-03T03:58:50.599Z,13.20
2023-05-03T04:01:18.923Z,12.50
2023-05-03T04:03:48.032Z,12.50
2023-05-03T04:06:16.820Z,12.40
2023-05-03T04:08:45.169Z,12.40
2023-05-03T04:11:15.233Z,12.40
2023-05-03T04:13:53.613Z,12.40
2023-05-03T04:16:22.995Z,12.40
2023-05-03T04:18:52.023Z,12.40
2023-05-03T04:21:20.931Z,12.40
2023-05-03T04:23:49.849Z,12.40
2023-05-03T04:26:31.121Z,12.40
2023-05-03T04:29:07.103Z,12.40
2023-05-03T04:31:37.142Z,12.50
2023-05-03T04:34:06.064Z,12.70
2023-05-03T04:36:34.540Z,12.40
2023-05-03T04:39:03.054Z,12.40
2023-05-03T04:41:31.550Z,12.40
2023-05-03T04:43:59.984Z,12.40
2023-05-03T04:46:30.791Z,12.40
2023-05-03T04:48:59.220Z,12.40
2023-05-03T04:51:28.379Z,12.40
2023-05-03T04:53:57.459Z,12.40
2023-05-03T04:56:26.857Z,12.40
2023-05-03T04:59:04.439Z,12.40
2023-05-03T05:01:35.292Z,13.20
2023-05-03T05:04:05.366Z,12.60
2023-05-03T05:06:40.251Z,12.40
2023-05-03T05:09:22.856Z,12.60
2023-05-03T05:11:55.304Z,12.40
2023-05-03T05:14:28.604Z,12.40
2023-05-03T05:16:59.090Z,12.40
2023-05-03T05:19:28.868Z,12.40
2023-05-03T05:21:58.048Z,12.40
2023-05-03T05:24:32.842Z,12.40
2023-05-03T05:27:01.439Z,12.40
2023-05-03T05:29:32.218Z,12.40
2023-05-03T05:32:04.178Z,12.40
2023-05-03T05:34:42.121Z,12.40
2023-05-03T05:37:15.141Z,12.40
2023-05-03T05:39:43.487Z,12.40
2023-05-03T05:42:12.228Z,12.40
2023-05-03T05:44:41.456Z,12.50
2023-05-03T05:48:05.089Z,12.50
2023-05-03T05:50:34.254Z,12.50
2023-05-03T05:53:09.119Z,12.60
2023-05-03T05:55:41.569Z,12.60
2023-05-03T05:58:12.159Z,12.60
2023-05-03T06:00:48.399Z,12.60
2023-05-03T06:03:18.177Z,13.00
2023-05-03T06:05:49.379Z,12.80
2023-05-03T06:08:17.802Z,12.80
2023-05-03T06:10:46.221Z,12.80
2023-05-03T06:13:14.731Z,12.90
2023-05-03T06:15:43.139Z,12.90
2023-05-03T06:18:11.631Z,13.00
2023-05-03T06:20:41.607Z,13.00
2023-05-03T06:23:10.428Z,13.10
2023-05-03T06:25:39.759Z,13.10
2023-05-03T06:28:09.234Z,13.10
2023-05-03T06:30:38.344Z,13.20
2023-05-03T06:33:15.615Z,13.20
2023-05-03T06:35:48.710Z,13.30
2023-05-03T06:38:19.681Z,13.30
2023-05-03T06:40:48.130Z,13.60
2023-05-03T06:43:16.435Z,13.30
2023-05-03T06:45:53.442Z,13.30
2023-05-03T06:48:22.479Z,13.30
2023-05-03T06:50:52.335Z,13.30
2023-05-03T06:53:20.776Z,13.30
2023-05-03T06:55:49.086Z,13.20
2023-05-03T06:58:17.484Z,13.20
2023-05-03T07:00:46.744Z,13.20
2023-05-03T07:03:15.117Z,13.20
2023-05-03T07:05:43.687Z,13.10
2023-05-03T07:08:13.414Z,13.10
2023-05-03T07:10:41.921Z,13.40
2023-05-03T07:13:10.405Z,13.10
2023-05-03T07:15:38.783Z,13.50
2023-05-03T07:18:07.313Z,14.10
2023-05-03T07:20:35.769Z,13.10
2023-05-03T07:23:04.540Z,13.20
2023-05-03T07:25:34.280Z,13.20
2023-05-03T07:28:03.404Z,13.20
2023-05-03T07:30:31.863Z,13.20
2023-05-03T07:33:00.344Z,13.40
2023-05-03T07:35:29.141Z,13.30
2023-05-03T07:37:57.836Z,13.30
2023-05-03T07:40:28.758Z,13.30
2023-05-03T07:42:58.482Z,13.40
2023-05-03T07:45:27.126Z,13.40
2023-05-03T07:47:56.613Z,13.50
2023-05-03T07:50:25.507Z,13.90
2023-05-03T07:52:54.213Z,13.60
2023-05-03T07:55:22.500Z,13.70
2023-05-03T07:57:51.078Z,13.80
2023-05-03T08:00:21.134Z,13.90
2023-05-03T08:02:49.590Z,14.00
2023-05-03T08:05:18.189Z,14.10
2023-05-03T08:07:46.882Z,14.20
2023-05-03T08:10:15.418Z,14.30
2023-05-03T08:12:45.652Z,14.40
2023-05-03T08:15:14.029Z,14.60
2023-05-03T08:17:45.477Z,14.80
2023-05-03T08:20:16.738Z,14.90
2023-05-03T08:22:45.318Z,15.10
2023-05-03T08:25:13.787Z,15.30
2023-05-03T08:27:42.133Z,15.40
2023-05-03T08:30:10.912Z,15.60
2023-05-03T08:32:39.440Z,15.70
2023-05-03T08:35:10.531Z,15.80
2023-05-03T08:37:42.346Z,15.90
2023-05-03T08:40:14.018Z,15.90
2023-05-03T08:42:44.126Z,16.00
2023-05-03T08:45:15.794Z,16.10
2023-05-03T08:47:45.748Z,16.20
2023-05-03T08:50:17.084Z,16.30
2023-05-03T08:52:45.662Z,16.30
2023-05-03T08:55:14.501Z,16.40
2023-05-03T08:57:42.873Z,16.40
2023-05-03T09:00:13.205Z,16.50
2023-05-03T09:02:42.336Z,16.60
2023-05-03T09:05:35.383Z,16.70
2023-05-03T09:08:05.207Z,16.70
2023-05-03T09:10:34.683Z,17.00
2023-05-03T09:13:04.162Z,16.90
2023-05-03T09:15:32.725Z,17.00
2023-05-03T09:18:17.515Z,17.00
2023-05-03T09:20:53.053Z,17.00
2023-05-03T09:23:31.956Z,17.10
2023-05-03T09:26:01.098Z,17.20
2023-05-03T09:28:29.854Z,17.40
2023-05-03T09:31:10.831Z,17.70
2023-05-03T09:33:41.224Z,17.80
2023-05-03T09:36:11.688Z,17.80
2023-05-03T09:38:40.084Z,18.00
2023-05-03T09:41:09.047Z,18.40
2023-05-03T09:43:37.697Z,18.30
2023-05-03T09:46:11.383Z,18.40
2023-05-03T09:48:41.250Z,18.90
2023-05-03T09:51:12.773Z,18.80
2023-05-03T09:53:41.950Z,19.00
2023-05-03T09:56:13.712Z,19.40
2023-05-03T09:58:44.004Z,19.40
2023-05-03T10:01:13.549Z,19.50
2023-05-03T10:03:45.173Z,19.70
2023-05-03T10:06:25.208Z,19.80
2023-05-03T10:09:05.789Z,20.20
2023-05-03T10:11:37.257Z,20.40
2023-05-03T10:14:07.744Z,20.40
2023-05-03T10:16:40.308Z,20.60
2023-05-03T10:19:15.715Z,20.80
2023-05-03T10:21:57.835Z,21.10
2023-05-03T10:24:26.602Z,21.10
2023-05-03T10:26:57.617Z,21.30
2023-05-03T10:29:53.850Z,21.50
2023-05-03T10:32:36.317Z,21.50
2023-05-03T10:35:09.911Z,21.70
2023-05-03T10:37:43.041Z,21.80
2023-05-03T10:40:15.117Z,22.00
2023-05-03T10:42:47.481Z,22.10
2023-05-03T10:45:25.410Z,22.30
2023-05-03T10:48:23.865Z,22.40
2023-05-03T10:50:52.977Z,22.60
2023-05-03T10:53:40.587Z,22.80
2023-05-03T10:56:11.014Z,22.70
2023-05-03T10:58:44.107Z,23.10
2023-05-03T11:01:14.873Z,23.10
2023-05-03T11:03:50.026Z,23.20
2023-05-03T11:06:36.002Z,23.30
2023-05-03T11:09:07.903Z,23.40
2023-05-03T11:11:39.309Z,23.40
2023-05-03T11:14:08.722Z,23.50
2023-05-03T11:16:40.645Z,23.60
2023-05-03T11:19:09.314Z,23.60
2023-05-03T11:21:37.801Z,23.70
2023-05-03T11:24:08.313Z,23.90
2023-05-03T11:26:37.676Z,23.90
2023-05-03T11:29:06.683Z,24.00
2023-05-03T11:31:35.785Z,24.10
2023-05-03T11:34:04.439Z,24.20
2023-05-03T11:36:33.014Z,24.30
2023-05-03T11:39:01.796Z,24.40
2023-05-03T11:41:31.482Z,24.50
2023-05-03T11:44:14.383Z,24.60
2023-05-03T11:46:44.484Z,24.60
2023-05-03T11:49:19.888Z,24.70
2023-05-03T11:51:51.649Z,24.70
2023-05-03T11:54:26.082Z,24.80
2023-05-03T11:56:59.979Z,24.80
2023-05-03T11:59:39.962Z,24.80
2023-05-03T12:02:10.830Z,24.70
2023-05-03T12:04:43.075Z,24.90
2023-05-03T12:07:15.312Z,24.80
2023-05-03T12:09:53.074Z,24.80
2023-05-03T12:12:37.869Z,24.80
2023-05-03T12:15:08.547Z,24.90
2023-05-03T12:17:39.445Z,24.80
2023-05-03T12:21:02.979Z,24.70
2023-05-03T12:23:09.732Z,24.70
2023-05-03T12:25:42.331Z,24.70
2023-05-03T12:28:20.283Z,24.60
2023-05-03T12:30:52.701Z,24.50
2023-05-03T12:33:22.766Z,24.60
2023-05-03T12:35:54.242Z,24.60
2023-05-03T12:38:24.788Z,24.60
2023-05-03T12:40:57.347Z,24.60
2023-05-03T12:43:27.380Z,24.70
2023-05-03T12:48:33.237Z,24.70
2023-05-03T12:51:18.521Z,24.70
2023-05-03T12:53:54.527Z,24.70
2023-05-03T12:56:25.424Z,24.80
2023-05-03T12:59:19.694Z,24.80
2023-05-03T13:06:48.267Z,24.80
2023-05-03T13:09:21.290Z,24.80
2023-05-03T13:11:53.313Z,24.80
2023-05-03T13:14:23.443Z,24.80
2023-05-03T13:16:52.084Z,24.80
2023-05-03T13:19:20.815Z,24.70
2023-05-03T13:21:49.851Z,24.70
2023-05-03T13:24:18.303Z,24.70
2023-05-03T13:26:46.664Z,24.70
2023-05-03T13:29:15.016Z,24.50
2023-05-03T13:31:44.799Z,24.70
2023-05-03T13:34:13.323Z,24.50
2023-05-03T13:36:41.732Z,24.40
2023-05-03T13:39:10.595Z,24.30
2023-05-03T13:41:42.188Z,24.30
2023-05-03T13:44:11.777Z,24.20
2023-05-03T13:46:41.697Z,24.20
2023-05-03T13:49:12.053Z,24.10
2023-05-03T13:51:40.847Z,24.10
2023-05-03T13:54:09.650Z,24.10
2023-05-03T13:56:38.066Z,24.00
2023-05-03T13:59:09.754Z,23.90
2023-05-03T14:01:38.592Z,24.00
2023-05-03T14:04:07.423Z,23.80
2023-05-03T14:06:40.267Z,23.80
2023-05-03T14:09:10.847Z,23.60
2023-05-03T14:11:41.756Z,23.70
2023-05-03T14:14:10.190Z,23.60
2023-05-03T14:16:42.015Z,23.70
2023-05-03T14:19:11.827Z,23.50
2023-05-03T14:21:43.254Z,23.50
2023-05-03T14:24:11.611Z,23.50
2023-05-03T14:26:39.939Z,23.40
2023-05-03T14:29:08.434Z,23.50
2023-05-03T14:31:36.945Z,23.50
2023-05-03T14:34:05.369Z,23.30
2023-05-03T14:36:36.182Z,23.30
2023-05-03T14:39:06.951Z,23.30
2023-05-03T14:41:36.301Z,23.20
2023-05-03T14:44:04.705Z,23.20
2023-05-03T14:46:33.102Z,23.10
2023-05-03T14:49:02.165Z,23.10
2023-05-03T14:51:31.791Z,23.00
2023-05-03T14:54:00.464Z,22.90
2023-05-03T14:56:31.706Z,22.80
2023-05-03T14:59:01.426Z,22.80
2023-05-03T15:01:29.923Z,22.80
2023-05-03T15:03:58.341Z,22.60
2023-05-03T15:06:30.849Z,22.50
2023-05-03T15:08:59.721Z,22.40
2023-05-03T15:11:29.481Z,22.40
2023-05-03T15:13:58.684Z,22.40
2023-05-03T15:16:27.284Z,22.30
2023-05-03T15:18:55.826Z,22.30
2023-05-03T15:21:24.383Z,22.40
2023-05-03T15:23:54.026Z,22.30
2023-05-03T15:26:24.501Z,22.30
2023-05-03T15:28:54.256Z,22.30
2023-05-03T15:31:22.754Z,22.30
2023-05-03T15:33:51.106Z,22.30
2023-05-03T15:36:19.441Z,22.30
2023-05-03T15:38:48.149Z,22.20
2023-05-03T15:41:16.537Z,22.10
2023-05-03T15:43:46.785Z,22.10
2023-05-03T15:46:16.716Z,22.00
2023-05-03T15:48:45.106Z,22.20
2023-05-03T15:51:13.403Z,21.90
2023-05-03T15:53:42.046Z,21.80
2023-05-03T15:56:11.466Z,21.70
2023-05-03T15:58:39.854Z,21.70
2023-05-03T16:01:08.251Z,21.70
2023-05-03T16:03:37.933Z,21.80
2023-05-03T16:06:07.239Z,21.70
2023-05-03T16:08:35.590Z,21.70
2023-05-03T16:11:03.947Z,21.70
2023-05-03T16:13:32.394Z,21.80
2023-05-03T16:16:02.630Z,21.70
2023-05-03T16:18:31.319Z,21.60
2023-05-03T16:21:02.540Z,21.70
2023-05-03T16:23:31.198Z,21.80
2023-05-03T16:26:00.356Z,21.80
2023-05-03T16:28:29.191Z,21.80
2023-05-03T16:30:57.954Z,21.80
2023-05-03T16:33:26.570Z,21.80
2023-05-03T16:35:55.414Z,21.80
2023-05-03T16:38:30.398Z,21.90
2023-05-03T16:41:00.358Z,21.90
2023-05-03T16:43:28.988Z,21.90
2023-05-03T16:45:59.630Z,21.90
2023-05-03T16:48:28.046Z,22.00
2023-05-03T16:50:56.808Z,21.90
2023-05-03T16:53:26.759Z,21.90
2023-05-03T16:55:55.730Z,21.90
2023-05-03T16:58:24.082Z,21.90
2023-05-03T17:00:53.536Z,21.90
2023-05-03T17:03:22.159Z,21.90
2023-05-03T17:05:50.692Z,21.90
2023-05-03T17:08:19.109Z,22.10
2023-05-03T17:10:48.850Z,22.00
2023-05-03T17:13:17.471Z,22.10
2023-05-03T17:15:45.929Z,22.00
2023-05-03T17:18:14.382Z,22.00
2023-05-03T17:20:42.996Z,22.00
2023-05-03T17:23:11.346Z,22.00
2023-05-03T17:25:39.683Z,21.90
2023-05-03T17:28:09.619Z,21.90
2023-05-03T17:30:37.947Z,22.00
2023-05-03T17:33:06.308Z,21.90
2023-05-03T17:35:34.676Z,21.90
2023-05-03T17:38:03.122Z,21.90
2023-05-03T17:40:31.748Z,21.80
2023-05-03T17:43:00.098Z,21.90
2023-05-03T17:45:29.799Z,21.90
2023-05-03T17:47:58.874Z,21.70
2023-05-03T17:50:27.286Z,21.60
2023-05-03T17:52:55.878Z,21.70
2023-05-03T17:55:24.360Z,21.70
2023-05-03T17:57:52.871Z,21.50
2023-05-03T18:00:22.635Z,21.60
2023-05-03T18:02:52.407Z,21.50
2023-05-03T18:05:21.133Z,21.40
2023-05-03T18:07:49.443Z,21.40
2023-05-03T18:10:18.070Z,21.30
2023-05-03T18:12:46.461Z,21.30
2023-05-03T18:15:15.926Z,21.30
2023-05-03T18:17:44.582Z,21.20
2023-05-03T18:20:15.039Z,21.10
2023-05-03T18:22:43.410Z,21.00
2023-05-03T18:25:11.799Z,21.00
2023-05-03T18:27:40.322Z,20.80
2023-05-03T18:30:10.571Z,20.80
2023-05-03T18:32:39.297Z,20.60
2023-05-03T18:35:08.925Z,20.50
2023-05-03T18:37:38.669Z,20.30
2023-05-03T18:40:09.093Z,20.30
2023-05-03T18:42:37.552Z,20.10
2023-05-03T18:45:07.089Z,19.90
2023-05-03T18:47:35.499Z,19.90
2023-05-03T18:50:05.071Z,19.70
2023-05-03T18:52:33.556Z,19.60
2023-05-03T18:55:03.206Z,19.60
2023-05-03T18:57:31.574Z,19.60
2023-05-03T19:00:01.433Z,19.50
2023-05-03T19:02:31.489Z,19.30
2023-05-03T19:05:01.066Z,19.30
2023-05-03T19:07:29.709Z,19.20
2023-05-03T19:09:58.546Z,19.20
2023-05-03T19:12:28.381Z,19.00
2023-05-03T19:14:56.774Z,19.00
2023-05-03T19:17:25.075Z,18.90
2023-05-03T19:19:53.439Z,18.90
2023-05-03T19:22:22.012Z,18.90
2023-05-03T19:24:50.989Z,18.80
2023-05-03T19:27:19.773Z,18.90
2023-05-03T19:29:49.446Z,18.60
2023-05-03T19:32:17.737Z,18.40
2023-05-03T19:34:46.009Z,18.40
2023-05-03T19:37:14.307Z,18.40
2023-05-03T19:39:42.788Z,18.40
2023-05-03T19:42:11.157Z,18.40
2023-05-03T19:44:39.502Z,18.10
2023-05-03T19:47:09.212Z,18.00
2023-05-03T19:49:37.806Z,18.00
2023-05-03T19:52:06.437Z,17.80
2023-05-03T19:54:34.757Z,17.80
2023-05-03T19:57:07.556Z,17.90
2023-05-03T19:59:36.498Z,17.70
2023-05-03T20:02:04.881Z,17.60
2023-05-03T20:04:34.538Z,17.70
2023-05-03T20:07:02.886Z,17.50
2023-05-03T20:09:31.198Z,17.40
2023-05-03T20:11:59.822Z,17.30
2023-05-03T20:14:28.329Z,17.40
2023-05-03T20:16:59.354Z,17.10
2023-05-03T20:19:27.733Z,17.00
2023-05-03T20:21:57.484Z,16.90
2023-05-03T20:24:25.884Z,16.90
2023-05-03T20:26:54.385Z,16.80
2023-05-03T20:29:22.783Z,16.70
2023-05-03T20:31:53.483Z,16.70
2023-05-03T20:34:22.084Z,16.50
2023-05-03T20:36:50.419Z,16.50
2023-05-03T20:39:20.237Z,16.40
2023-05-03T20:41:48.545Z,16.20
2023-05-03T20:44:16.896Z,16.30
2023-05-03T20:46:45.673Z,16.10
2023-05-03T20:49:14.061Z,16.10
2023-05-03T20:51:42.390Z,16.10
2023-05-03T20:54:10.729Z,16.00
2023-05-03T20:56:40.517Z,16.00
2023-05-03T20:59:08.910Z,15.90
2023-05-03T21:01:41.125Z,16.50
2023-05-03T21:04:10.540Z,16.20
2023-05-03T21:06:38.906Z,15.80
2023-05-03T21:09:07.556Z,15.60
2023-05-03T21:11:37.123Z,15.60
2023-05-03T21:14:07.441Z,15.50
2023-05-03T21:16:35.939Z,15.50
2023-05-03T21:19:04.280Z,15.40
2023-05-03T21:21:33.132Z,15.30
2023-05-03T21:24:01.620Z,15.30
2023-05-03T21:26:30.330Z,15.30
2023-05-03T21:29:00.214Z,15.20
2023-05-03T21:31:29.980Z,15.20
2023-05-03T21:33:59.030Z,15.10
2023-05-03T21:36:27.806Z,15.10
2023-05-03T21:38:56.267Z,15.00
2023-05-03T21:41:24.664Z,15.00
2023-05-03T21:43:53.019Z,14.90
2023-05-03T21:46:21.566Z,14.90
2023-05-03T21:48:51.613Z,14.80
2023-05-03T21:51:20.278Z,14.70
2023-05-03T21:53:49.168Z,15.10
2023-05-03T21:56:17.549Z,14.60
2023-05-03T21:58:46.339Z,14.60
2023-05-03T22:01:17.439Z,14.50
2023-05-03T22:03:46.375Z,14.50
2023-05-03T22:06:16.196Z,14.40
2023-05-03T22:08:44.552Z,14.30
2023-05-03T22:11:12.952Z,14.30
2023-05-03T22:13:54.598Z,14.30
2023-05-03T22:16:29.779Z,14.20
2023-05-03T22:18:58.435Z,14.20
2023-05-03T22:21:28.209Z,14.10
2023-05-03T22:23:56.512Z,14.10
2023-05-03T22:26:25.391Z,14.00
2023-05-03T22:28:53.754Z,14.00
2023-05-03T22:31:22.374Z,13.90
2023-05-03T22:33:50.725Z,13.90
2023-05-03T22:36:19.105Z,14.20
2023-05-03T22:38:48.881Z,13.80
2023-05-03T22:41:17.182Z,13.80
2023-05-03T22:43:45.623Z,13.70
2023-05-03T22:46:14.076Z,13.70
2023-05-03T22:48:42.578Z,13.70
2023-05-03T22:51:11.198Z,13.60
2023-05-03T22:53:39.669Z,13.60
2023-05-03T22:56:09.539Z,13.50
2023-05-03T22:58:38.125Z,13.50
2023-05-03T23:01:11.520Z,13.40
2023-05-03T23:03:41.145Z,13.40
2023-05-03T23:06:09.606Z,13.40
2023-05-03T23:08:38.484Z,13.30
2023-05-03T23:11:07.002Z,13.30
2023-05-03T23:13:36.995Z,13.30
2023-05-03T23:16:06.092Z,13.80
2023-05-03T23:18:34.459Z,13.20
2023-05-03T23:21:02.869Z,13.10
2023-05-03T23:23:31.257Z,13.10
2023-05-03T23:25:59.575Z,13.20
2023-05-03T23:28:28.048Z,13.00
2023-05-03T23:30:58.549Z,13.20
2023-05-03T23:33:27.390Z,12.90
2023-05-03T23:35:56.440Z,12.90
2023-05-03T23:38:24.809Z,12.80
2023-05-03T23:40:53.254Z,12.80
2023-05-03T23:43:21.538Z,12.80
2023-05-03T23:45:49.879Z,12.70
2023-05-03T23:48:19.535Z,12.70
2023-05-03T23:50:47.876Z,12.70
2023-05-03T23:53:16.231Z,12.60
2023-05-03T23:55:44.567Z,12.60
2023-05-03T23:58:12.842Z,12.60
